createdAt,value
2019-01-15T00:01:09.474Z,100506.11
2019-01-15T00:03:39.334Z,100498.08
2019-01-15T00:06:09.124Z,100498.08
2019-01-15T00:08:38.947Z,100489.72
2019-01-15T00:11:08.794Z,100499.89
2019-01-15T00:13:38.310Z,100485.48
2019-01-15T00:16:07.843Z,100499.82
2019-01-15T00:18:37.369Z,100469.73
2019-01-15T00:21:07.477Z,100501.01
2019-01-15T00:23:36.992Z,100505.31
2019-01-15T00:26:06.535Z,100502.23
2019-01-15T00:28:36.057Z,100512.76
2019-01-15T00:31:05.818Z,100508.08
2019-01-15T00:33:35.607Z,100497.84
2019-01-15T00:36:05.483Z,100498.40
2019-01-15T00:38:35.334Z,100496.94
2019-01-15T00:41:04.922Z,100491.41
2019-01-15T00:43:34.458Z,100498.77
2019-01-15T00:46:04.053Z,100505.27
2019-01-15T00:48:33.923Z,100502.61
2019-01-15T00:51:03.773Z,100510.59
2019-01-15T00:53:33.369Z,100503.16
2019-01-15T00:56:03.127Z,100497.22
2019-01-15T00:58:32.691Z,100498.37
2019-01-15T01:01:02.740Z,100502.66
2019-01-15T01:03:33.493Z,100510.88
2019-01-15T01:06:02.962Z,100509.56
2019-01-15T01:08:32.622Z,100508.28
2019-01-15T01:11:02.127Z,100513.95
2019-01-15T01:13:31.850Z,100515.42
2019-01-15T01:16:01.340Z,100507.15
2019-01-15T01:18:30.831Z,100509.66
2019-01-15T01:21:00.722Z,100505.31
2019-01-15T01:23:30.229Z,100517.86
2019-01-15T01:25:59.848Z,100518.17
2019-01-15T01:28:29.300Z,100519.48
2019-01-15T01:30:59.101Z,100519.44
2019-01-15T01:33:29.101Z,100535.19
2019-01-15T01:35:58.589Z,100525.30
2019-01-15T01:38:28.848Z,100523.38
2019-01-15T01:40:58.881Z,100533.35
2019-01-15T01:43:28.475Z,100539.38
2019-01-15T01:45:58.916Z,100544.71
2019-01-15T01:48:28.804Z,100549.08
2019-01-15T01:50:58.990Z,100555.61
2019-01-15T01:53:28.554Z,100544.77
2019-01-15T01:55:59.202Z,100543.88
2019-01-15T01:58:28.725Z,100550.76
2019-01-15T02:00:59.002Z,100541.33
2019-01-15T02:03:28.841Z,100540.70
2019-01-15T02:05:58.894Z,100543.94
2019-01-15T02:08:28.953Z,100544.33
2019-01-15T02:10:58.568Z,100538.45
2019-01-15T02:13:28.583Z,100541.33
2019-01-15T02:15:58.566Z,100538.57
2019-01-15T02:18:28.574Z,100536.39
2019-01-15T02:20:58.942Z,100542.73
2019-01-15T02:23:28.860Z,100542.44
2019-01-15T02:25:58.644Z,100546.02
2019-01-15T02:28:28.583Z,100546.45
2019-01-15T02:30:58.688Z,100546.92
2019-01-15T02:33:28.653Z,100543.46
2019-01-15T02:35:58.733Z,100538.14
2019-01-15T02:38:28.626Z,100540.33
2019-01-15T02:40:58.774Z,100533.80
2019-01-15T02:43:28.691Z,100530.25
2019-01-15T02:45:58.802Z,100530.72
2019-01-15T02:48:28.700Z,100536.11
2019-01-15T02:51:00.583Z,100526.52
2019-01-15T02:53:30.379Z,100533.25
2019-01-15T02:56:00.151Z,100527.27
2019-01-15T02:58:29.649Z,100533.61
2019-01-15T03:00:59.179Z,100528.79
2019-01-15T03:03:29.644Z,100528.02
2019-01-15T03:05:59.203Z,100534.98
2019-01-15T03:08:28.808Z,100528.49
2019-01-15T03:10:58.840Z,100525.11
2019-01-15T03:13:28.726Z,100529.44
2019-01-15T03:15:58.828Z,100532.80
2019-01-15T03:18:28.783Z,100519.06
2019-01-15T03:20:58.777Z,100525.48
2019-01-15T03:23:28.856Z,100530.15
2019-01-15T03:25:59.358Z,100536.22
2019-01-15T03:28:28.870Z,100530.57
2019-01-15T03:30:58.840Z,100531.17
2019-01-15T03:33:29.166Z,100530.55
2019-01-15T03:35:59.511Z,100516.83
2019-01-15T03:38:28.999Z,100516.75
2019-01-15T03:40:58.875Z,100521.42
2019-01-15T03:43:29.196Z,100524.87
2019-01-15T03:46:04.204Z,100524.60
2019-01-15T03:48:30.327Z,100520.37
2019-01-15T03:51:00.092Z,100518.98
2019-01-15T03:53:29.646Z,100516.18
2019-01-15T03:55:59.430Z,100523.62
2019-01-15T03:58:32.221Z,100522.06
2019-01-15T04:01:01.747Z,100521.72
2019-01-15T04:03:31.306Z,100524.67
2019-01-15T04:06:00.883Z,100512.36
2019-01-15T04:08:30.436Z,100498.95
2019-01-15T04:10:59.953Z,100510.53
2019-01-15T04:13:29.834Z,100514.34
2019-01-15T04:15:59.402Z,100511.23
2019-01-15T04:18:28.971Z,100520.84
2019-01-15T04:20:59.375Z,100515.34
2019-01-15T04:23:29.024Z,100506.25
2019-01-15T04:25:59.049Z,100499.45
2019-01-15T04:28:29.014Z,100505.47
2019-01-15T04:30:58.987Z,100511.52
2019-01-15T04:33:29.108Z,100501.36
2019-01-15T04:35:59.041Z,100505.59
2019-01-15T04:38:29.021Z,100508.67
2019-01-15T04:40:59.342Z,100511.66
2019-01-15T04:43:29.347Z,100492.36
2019-01-15T04:45:59.118Z,100505.65
2019-01-15T04:48:29.458Z,100491.43
2019-01-15T04:50:59.323Z,100489.75
2019-01-15T04:53:29.368Z,100506.25
2019-01-15T04:55:59.110Z,100504.46
2019-01-15T04:58:29.094Z,100510.71
2019-01-15T05:00:59.356Z,100502.89
2019-01-15T05:03:29.423Z,100506.02
2019-01-15T05:06:02.138Z,100497.67
2019-01-15T05:08:31.914Z,100492.08
2019-01-15T05:11:01.407Z,100486.31
2019-01-15T05:13:31.335Z,100499.88
2019-01-15T05:16:00.822Z,100488.05
2019-01-15T05:18:30.663Z,100479.39
2019-01-15T05:21:00.287Z,100483.70
2019-01-15T05:23:29.879Z,100481.65
2019-01-15T05:25:59.397Z,100476.41
2019-01-15T05:28:29.179Z,100471.56
2019-01-15T05:30:59.225Z,100472.06
2019-01-15T05:33:29.183Z,100463.82
2019-01-15T05:35:59.123Z,100469.09
2019-01-15T05:38:29.187Z,100469.44
2019-01-15T05:40:59.271Z,100459.47
2019-01-15T05:43:35.449Z,100451.45
2019-01-15T05:46:00.497Z,100448.77
2019-01-15T05:48:33.298Z,100456.66
2019-01-15T05:51:12.765Z,100456.20
2019-01-15T05:53:42.294Z,100458.08
2019-01-15T05:56:12.049Z,100460.66
2019-01-15T05:58:41.625Z,100457.78
2019-01-15T06:01:11.201Z,100456.00
2019-01-15T06:03:40.680Z,100450.51
2019-01-15T06:06:10.338Z,100458.83
2019-01-15T06:08:40.143Z,100455.02
2019-01-15T06:11:10.285Z,100452.02
2019-01-15T06:13:42.768Z,100452.52
2019-01-15T06:16:11.229Z,100456.33
2019-01-15T06:18:43.061Z,100438.73
2019-01-15T06:21:12.545Z,100448.56
2019-01-15T06:23:42.009Z,100445.50
2019-01-15T06:26:12.137Z,100436.73
2019-01-15T06:28:43.316Z,100427.45
2019-01-15T06:31:14.197Z,100427.37
2019-01-15T06:33:43.664Z,100412.19
2019-01-15T06:36:13.292Z,100420.30
2019-01-15T06:38:43.390Z,100406.79
2019-01-15T06:41:13.246Z,100398.09
2019-01-15T06:43:49.720Z,100399.72
2019-01-15T06:46:13.982Z,100388.97
2019-01-15T06:48:43.773Z,100401.45
2019-01-15T06:51:13.649Z,100394.55
2019-01-15T06:53:43.193Z,100390.40
2019-01-15T06:56:12.710Z,100406.31
2019-01-15T06:58:42.180Z,100409.16
2019-01-15T07:01:11.703Z,100408.41
2019-01-15T07:03:41.190Z,100402.98
2019-01-15T07:06:10.721Z,100403.74
2019-01-15T07:08:40.222Z,100394.89
2019-01-15T07:11:09.749Z,100400.31
2019-01-15T07:13:39.480Z,100407.05
2019-01-15T07:16:09.365Z,100404.84
2019-01-15T07:18:38.850Z,100402.45
2019-01-15T07:21:08.322Z,100396.39
2019-01-15T07:23:37.826Z,100397.84
2019-01-15T07:26:07.682Z,100415.88
2019-01-15T07:28:37.168Z,100408.98
2019-01-15T07:31:06.713Z,100414.42
2019-01-15T07:33:36.565Z,100413.36
2019-01-15T07:36:06.129Z,100426.93
2019-01-15T07:38:36.263Z,100414.17
2019-01-15T07:41:06.046Z,100440.76
2019-01-15T07:43:35.546Z,100430.86
2019-01-15T07:46:05.199Z,100431.00
2019-01-15T07:48:34.743Z,100422.06
2019-01-15T07:51:04.258Z,100440.30
2019-01-15T07:53:33.787Z,100440.61
2019-01-15T07:56:03.571Z,100441.86
2019-01-15T07:58:33.067Z,100427.17
2019-01-15T08:01:02.631Z,100428.84
2019-01-15T08:03:32.141Z,100432.55
2019-01-15T08:06:01.633Z,100429.35
2019-01-15T08:08:31.150Z,100432.69
2019-01-15T08:11:00.937Z,100430.08
2019-01-15T08:13:31.436Z,100418.19
2019-01-15T08:16:01.204Z,100428.09
2019-01-15T08:18:30.729Z,100428.00
2019-01-15T08:21:00.611Z,100421.59
2019-01-15T08:23:30.153Z,100431.45
2019-01-15T08:25:59.630Z,100430.34
2019-01-15T08:28:29.670Z,100427.48
2019-01-15T08:30:59.822Z,100425.30
2019-01-15T08:33:29.919Z,100430.52
2019-01-15T08:35:59.553Z,100431.30
2019-01-15T08:38:29.566Z,100431.22
2019-01-15T08:40:59.617Z,100427.73
2019-01-15T08:43:29.965Z,100418.01
2019-01-15T08:45:59.869Z,100422.41
2019-01-15T08:48:31.336Z,100421.25
2019-01-15T08:51:01.475Z,100402.70
2019-01-15T08:53:31.455Z,100410.64
2019-01-15T08:56:01.050Z,100405.42
2019-01-15T08:58:30.829Z,100404.88
2019-01-15T09:01:00.872Z,100398.11
2019-01-15T09:03:31.337Z,100407.25
2019-01-15T09:06:01.575Z,100400.95
2019-01-15T09:08:31.183Z,100407.81
2019-01-15T09:11:02.856Z,100402.26
2019-01-15T09:13:32.635Z,100394.39
2019-01-15T09:16:02.444Z,100420.33
2019-01-15T09:18:31.934Z,100414.15
2019-01-15T09:21:02.032Z,100405.81
2019-01-15T09:23:31.597Z,100397.84
2019-01-15T09:26:01.099Z,100369.20
2019-01-15T09:28:30.624Z,100388.02
2019-01-15T09:31:00.214Z,100394.87
2019-01-15T09:33:29.744Z,100389.19
2019-01-15T09:35:59.771Z,100386.22
2019-01-15T09:38:29.731Z,100384.41
2019-01-15T09:40:59.862Z,100373.25
2019-01-15T09:43:29.969Z,100360.34
2019-01-15T09:45:59.708Z,100370.53
2019-01-15T09:48:34.628Z,100384.09
2019-01-15T09:51:04.354Z,100384.09
2019-01-15T09:53:33.850Z,100370.56
2019-01-15T09:56:03.346Z,100369.20
2019-01-15T09:58:33.038Z,100372.45
2019-01-15T10:01:02.704Z,100373.60
2019-01-15T10:03:32.511Z,100363.66
2019-01-15T10:06:02.176Z,100360.89
2019-01-15T10:08:33.026Z,100359.02
2019-01-15T10:11:02.604Z,100353.16
2019-01-15T10:13:32.121Z,100362.95
2019-01-15T10:16:01.609Z,100354.16
2019-01-15T10:18:31.207Z,100357.51
2019-01-15T10:21:01.126Z,100352.48
2019-01-15T10:23:30.759Z,100359.48
2019-01-15T10:26:00.257Z,100343.91
2019-01-15T10:28:30.099Z,100344.73
2019-01-15T10:31:41.070Z,100327.38
2019-01-15T10:34:16.287Z,100340.66
2019-01-15T10:36:46.705Z,100346.59
2019-01-15T10:39:16.532Z,100345.05
2019-01-15T10:41:45.999Z,100334.09
2019-01-15T10:44:15.655Z,100320.55
2019-01-15T10:46:45.545Z,100318.69
2019-01-15T10:49:15.332Z,100322.42
2019-01-15T10:51:44.998Z,100318.39
2019-01-15T10:54:14.631Z,100309.31
2019-01-15T10:56:44.238Z,100321.98
2019-01-15T10:59:14.076Z,100312.66
2019-01-15T11:01:43.730Z,100312.56
2019-01-15T11:04:13.319Z,100316.48
2019-01-15T11:06:42.878Z,100319.55
2019-01-15T11:09:12.755Z,100319.45
2019-01-15T11:11:42.279Z,100312.98
2019-01-15T11:14:15.800Z,100310.56
2019-01-15T11:16:45.293Z,100277.27
2019-01-15T11:19:14.963Z,100308.37
2019-01-15T11:21:44.546Z,100308.64
2019-01-15T11:24:15.379Z,100320.97
2019-01-15T11:26:45.389Z,100298.42
2019-01-15T11:29:15.214Z,100304.73
2019-01-15T11:31:47.792Z,100302.34
2019-01-15T11:34:17.388Z,100300.08
2019-01-15T11:36:46.943Z,100295.58
2019-01-15T11:39:16.637Z,100243.67
2019-01-15T11:41:46.221Z,100298.84
2019-01-15T11:44:15.722Z,100284.06
2019-01-15T11:46:45.191Z,100286.22
2019-01-15T11:49:15.348Z,100279.25
2019-01-15T11:51:45.349Z,100274.87
2019-01-15T11:54:14.877Z,100266.63
2019-01-15T11:56:44.399Z,100267.86
2019-01-15T11:59:14.172Z,100263.69
2019-01-15T12:01:47.300Z,100272.48
2019-01-15T12:04:34.911Z,100251.53
2019-01-15T12:07:22.042Z,100258.80
2019-01-15T12:10:29.111Z,100270.58
2019-01-15T12:13:16.326Z,100251.18
2019-01-15T12:16:03.537Z,100240.07
2019-01-15T12:18:52.358Z,100252.15
2019-01-15T12:21:46.532Z,100250.03
2019-01-15T12:24:30.781Z,100238.76
2019-01-15T12:27:17.925Z,100229.21
2019-01-15T12:30:04.679Z,100230.16
2019-01-15T12:32:44.188Z,100220.36
2019-01-15T12:35:23.221Z,100216.77
2019-01-15T12:38:30.093Z,100211.10
2019-01-15T12:41:19.705Z,100207.17
2019-01-15T12:44:07.341Z,100198.61
2019-01-15T12:47:02.381Z,100198.77
2019-01-15T12:49:59.084Z,100201.12
2019-01-15T12:52:46.467Z,100186.13
2019-01-15T12:55:50.469Z,100194.50
2019-01-15T12:58:43.633Z,100196.27
2019-01-15T13:01:38.527Z,100201.50
2019-01-15T13:04:27.087Z,100199.42
2019-01-15T13:07:15.638Z,100171.66
2019-01-15T13:09:56.767Z,100183.19
2019-01-15T13:12:51.467Z,100181.75
2019-01-15T13:15:48.972Z,100184.32
2019-01-15T13:18:41.457Z,100180.95
2019-01-15T13:21:31.728Z,100173.52
2019-01-15T13:24:18.810Z,100171.19
2019-01-15T13:27:10.729Z,100182.90
2019-01-15T13:30:02.278Z,100172.75
2019-01-15T13:32:41.394Z,100177.56
2019-01-15T13:35:35.899Z,100160.57
2019-01-15T13:38:31.068Z,100159.64
2019-01-15T13:41:12.880Z,100156.38
2019-01-15T13:44:19.440Z,100150.75
2019-01-15T13:47:16.703Z,100126.92
2019-01-15T13:50:02.631Z,100138.71
2019-01-15T13:53:06.565Z,100143.30
2019-01-15T13:55:50.819Z,100121.30
2019-01-15T13:58:38.250Z,100124.98
2019-01-15T14:01:22.421Z,100135.33
2019-01-15T14:04:09.512Z,100140.06
2019-01-15T14:06:56.606Z,100133.50
2019-01-15T14:09:48.202Z,100124.59
2019-01-15T14:12:42.808Z,100125.50
2019-01-15T14:15:26.585Z,100122.83
2019-01-15T14:18:08.547Z,100134.67
2019-01-15T14:20:56.179Z,100133.50
2019-01-15T14:23:45.880Z,100146.42
2019-01-15T14:26:41.056Z,100147.19
2019-01-15T14:29:49.409Z,100153.03
2019-01-15T14:32:37.118Z,100152.86
2019-01-15T14:35:25.736Z,100150.60
2019-01-15T14:38:17.061Z,100149.62
2019-01-15T14:41:14.983Z,100156.41
2019-01-15T14:44:03.540Z,100148.46
2019-01-15T14:46:54.818Z,100141.38
2019-01-15T14:49:46.548Z,100138.80
2019-01-15T14:52:28.027Z,100137.68
2019-01-15T14:55:32.197Z,100133.25
2019-01-15T14:58:24.585Z,100132.71
2019-01-15T15:01:20.652Z,100140.73
2019-01-15T15:04:15.592Z,100148.03
2019-01-15T15:07:03.194Z,100140.85
2019-01-15T15:10:03.966Z,100144.32
2019-01-15T15:12:41.463Z,100134.67
2019-01-15T15:15:39.017Z,100136.31
2019-01-15T15:18:21.274Z,100140.39
2019-01-15T15:21:02.252Z,100136.45
2019-01-15T15:23:52.714Z,100128.59
2019-01-15T15:26:41.286Z,100134.53
2019-01-15T15:29:35.890Z,100132.00
2019-01-15T15:32:16.093Z,100128.20
2019-01-15T15:35:23.176Z,100135.33
2019-01-15T15:38:30.046Z,100134.86
2019-01-15T15:41:18.605Z,100136.53
2019-01-15T15:44:05.888Z,100147.53
2019-01-15T15:46:48.416Z,100154.34
2019-01-15T15:49:30.537Z,100134.86
2019-01-15T15:52:09.266Z,100149.29
2019-01-15T15:54:57.903Z,100133.97
2019-01-15T15:57:39.630Z,100132.19
2019-01-15T16:00:31.010Z,100127.61
2019-01-15T16:03:12.918Z,100121.10
2019-01-15T16:06:00.233Z,100118.34
2019-01-15T16:08:51.329Z,100114.22
2019-01-15T16:11:35.863Z,100121.19
2019-01-15T16:14:23.108Z,100113.69
2019-01-15T16:17:12.642Z,100112.52
2019-01-15T16:20:13.377Z,100099.80
2019-01-15T16:22:57.046Z,100114.33
2019-01-15T16:25:44.077Z,100108.13
2019-01-15T16:28:41.786Z,100112.25
2019-01-15T16:31:27.973Z,100113.09
2019-01-15T16:34:23.840Z,100112.11
2019-01-15T16:37:11.518Z,100114.06
2019-01-15T16:39:49.404Z,100109.34
2019-01-15T16:42:38.504Z,100103.56
2019-01-15T16:45:28.067Z,100113.91
2019-01-15T16:48:15.474Z,100111.84
2019-01-15T16:51:02.902Z,100101.55
2019-01-15T16:53:46.091Z,100105.29
2019-01-15T16:56:43.637Z,100102.25
2019-01-15T16:59:28.268Z,100095.17
2019-01-15T17:02:17.013Z,100100.88
2019-01-15T17:05:10.621Z,100096.69
2019-01-15T17:07:56.133Z,100102.00
2019-01-15T17:10:50.624Z,100091.23
2019-01-15T17:13:29.927Z,100112.49
2019-01-15T17:16:33.575Z,100097.65
2019-01-15T17:19:09.204Z,100093.33
2019-01-15T17:22:02.699Z,100091.03
2019-01-15T17:24:48.321Z,100096.08
2019-01-15T17:27:40.816Z,100098.96
2019-01-15T17:30:30.744Z,100096.42
2019-01-15T17:33:26.441Z,100093.56
2019-01-15T17:36:09.691Z,100082.60
2019-01-15T17:39:07.259Z,100082.60
2019-01-15T17:41:59.021Z,100101.35
2019-01-15T17:44:53.894Z,100104.97
2019-01-15T17:47:40.157Z,100093.09
2019-01-15T17:50:30.383Z,100104.75
2019-01-15T17:53:35.373Z,100109.88
2019-01-15T17:56:22.891Z,100102.20
2019-01-15T17:59:14.922Z,100104.92
2019-01-15T18:01:58.869Z,100112.14
2019-01-15T18:04:50.821Z,100106.89
2019-01-15T18:07:34.637Z,100099.02
2019-01-15T18:10:15.454Z,100115.01
2019-01-15T18:12:57.260Z,100109.91
2019-01-15T18:15:37.112Z,100113.84
2019-01-15T18:18:17.838Z,100109.06
2019-01-15T18:21:05.306Z,100118.30
2019-01-15T18:23:48.509Z,100110.29
2019-01-15T18:26:41.637Z,100103.88
2019-01-15T18:29:35.542Z,100125.50
2019-01-15T18:32:25.781Z,100122.38
2019-01-15T18:35:12.825Z,100116.76
2019-01-15T18:37:55.140Z,100129.53
2019-01-15T18:40:49.945Z,100121.81
2019-01-15T18:43:37.685Z,100127.00
2019-01-15T18:46:34.668Z,100142.09
2019-01-15T18:49:21.256Z,100132.02
2019-01-15T18:52:08.664Z,100129.40
2019-01-15T18:55:00.269Z,100126.70
2019-01-15T18:57:41.278Z,100133.47
2019-01-15T19:00:30.694Z,100120.94
2019-01-15T19:03:19.596Z,100121.81
2019-01-15T19:06:14.106Z,100124.02
2019-01-15T19:08:56.741Z,100124.90
2019-01-15T19:11:45.249Z,100113.98
2019-01-15T19:14:48.736Z,100100.20
2019-01-15T19:17:34.210Z,100128.20
2019-01-15T19:20:14.627Z,100120.91
2019-01-15T19:23:01.737Z,100120.52
2019-01-15T19:25:42.523Z,100119.81
2019-01-15T19:28:23.340Z,100123.28
2019-01-15T19:31:05.592Z,100130.82
2019-01-15T19:34:00.044Z,100122.75
2019-01-15T19:36:48.075Z,100127.12
2019-01-15T19:39:30.593Z,100125.95
2019-01-15T19:42:19.258Z,100118.80
2019-01-15T19:45:15.349Z,100130.08
2019-01-15T19:48:02.758Z,100125.44
2019-01-15T19:51:03.667Z,100132.65
2019-01-15T19:53:51.783Z,100140.44
2019-01-15T19:56:42.555Z,100141.89
2019-01-15T19:59:24.580Z,100131.26
2019-01-15T20:02:25.690Z,100135.47
2019-01-15T20:05:04.695Z,100137.25
2019-01-15T20:07:51.782Z,100135.47
2019-01-15T20:10:41.489Z,100133.97
2019-01-15T20:13:48.112Z,100134.81
2019-01-15T20:16:31.271Z,100133.75
2019-01-15T20:19:16.440Z,100126.02
2019-01-15T20:22:20.137Z,100129.70
2019-01-15T20:25:22.515Z,100127.27
2019-01-15T20:28:03.337Z,100146.09
2019-01-15T20:31:01.495Z,100145.77
2019-01-15T20:33:48.743Z,100145.03
2019-01-15T20:36:36.679Z,100144.78
2019-01-15T20:39:33.814Z,100144.78
2019-01-15T20:42:20.985Z,100161.31
2019-01-15T20:45:04.808Z,100148.33
2019-01-15T20:47:47.330Z,100140.66
2019-01-15T20:50:34.394Z,100146.02
2019-01-15T20:53:20.945Z,100146.48
2019-01-15T20:56:08.420Z,100149.75
2019-01-15T20:59:15.580Z,100145.17
2019-01-15T21:01:52.055Z,100144.19
2019-01-15T21:04:44.335Z,100125.06
2019-01-15T21:07:31.580Z,100125.06
2019-01-15T21:10:19.150Z,100142.41
2019-01-15T21:13:11.837Z,100142.41
2019-01-15T21:16:18.539Z,100143.15
2019-01-15T21:19:05.742Z,100137.16
2019-01-15T21:21:48.460Z,100145.44
2019-01-15T21:24:46.346Z,100147.73
2019-01-15T21:27:35.830Z,100141.56
2019-01-15T21:30:26.841Z,100153.97
2019-01-15T21:33:22.865Z,100149.23
2019-01-15T21:36:09.979Z,100147.41
2019-01-15T21:38:52.886Z,100130.30
2019-01-15T21:41:50.740Z,100154.29
2019-01-15T21:44:39.778Z,100150.60
2019-01-15T21:47:28.582Z,100149.51
2019-01-15T21:50:17.774Z,100152.66
2019-01-15T21:53:15.431Z,100154.67
2019-01-15T21:56:06.323Z,100154.09
2019-01-15T21:58:54.900Z,100154.09
2019-01-15T22:01:42.826Z,100157.42
2019-01-15T22:04:43.684Z,100151.80
2019-01-15T22:07:31.616Z,100158.73
2019-01-15T22:10:13.939Z,100149.88
2019-01-15T22:13:01.234Z,100150.81
2019-01-15T22:15:49.792Z,100146.35
2019-01-15T22:18:35.090Z,100150.09
2019-01-15T22:21:22.261Z,100154.35
2019-01-15T22:24:10.428Z,100152.05
2019-01-15T22:26:58.082Z,100145.95
2019-01-15T22:29:58.896Z,100145.67
2019-01-15T22:32:52.139Z,100143.42
2019-01-15T22:35:40.893Z,100153.87
2019-01-15T22:38:28.631Z,100129.78
2019-01-15T22:41:05.585Z,100147.25
2019-01-15T22:43:52.921Z,100143.17
2019-01-15T22:46:39.961Z,100137.86
2019-01-15T22:49:28.522Z,100138.77
2019-01-15T22:52:23.068Z,100140.02
2019-01-15T22:55:10.781Z,100145.65
2019-01-15T22:57:57.117Z,100144.55
2019-01-15T23:01:08.286Z,100146.70
2019-01-15T23:03:59.774Z,100150.23
2019-01-15T23:06:42.755Z,100147.23
2019-01-15T23:09:24.440Z,100157.46
2019-01-15T23:12:02.536Z,100156.99
2019-01-15T23:14:49.685Z,100141.31
2019-01-15T23:17:39.009Z,100143.14
2019-01-15T23:20:30.560Z,100154.44
2019-01-15T23:23:28.524Z,100142.63
2019-01-15T23:26:12.490Z,100146.11
2019-01-15T23:28:56.907Z,100145.65
2019-01-15T23:31:48.646Z,100139.50
2019-01-15T23:34:26.776Z,100140.05
2019-01-15T23:37:15.345Z,100141.19
2019-01-15T23:40:12.414Z,100145.19
2019-01-15T23:43:00.038Z,100142.91
2019-01-15T23:45:44.988Z,100140.66
2019-01-15T23:48:32.233Z,100141.66
2019-01-15T23:51:28.934Z,100141.02
2019-01-15T23:54:20.423Z,100142.98
2019-01-15T23:56:57.373Z,100141.91
2019-01-15T23:59:47.078Z,100138.70
